Time;durP1;ratioP1;P1;durP2;ratioP2;P2;SDS_P1;SDS_P2;PMS_P1;PMS_P2;Temp;Humidity;BMP_temperature;BMP_pressure;BME280_temperature;BME280_humidity;BME280_pressure;Samples;Min_cycle;Max_cycle;Signal;HPM_P1;HPM_P2
2023/01/19 00:01:08;;;;;;;13.50;6.28;;;3.10;99.90;;;;;;6211286;23;20086;-84
2023/01/19 00:03:34;;;;;;;9.55;4.63;;;3.00;99.90;;;;;;6239110;23;20341;-83
2023/01/19 00:06:05;;;;;;;7.85;3.80;;;2.40;99.90;;;;;;6238265;23;20051;-84
2023/01/19 00:08:31;;;;;;;8.32;4.18;;;2.40;99.90;;;;;;6213011;23;20024;-84
2023/01/19 00:10:57;;;;;;;8.00;4.00;;;2.30;99.90;;;;;;6238396;23;20012;-84
2023/01/19 00:13:23;;;;;;;6.20;3.70;;;2.30;99.90;;;;;;6264612;22;20012;-84
2023/01/19 00:15:49;;;;;;;7.35;3.70;;;2.20;99.90;;;;;;6238302;22;20392;-83
2023/01/19 00:18:14;;;;;;;11.80;4.70;;;2.20;99.90;;;;;;6214509;22;20016;-84
2023/01/19 00:20:40;;;;;;;6.82;4.25;;;2.30;99.90;;;;;;6212779;23;20107;-84
2023/01/19 00:23:07;;;;;;;7.90;4.32;;;2.20;99.90;;;;;;6258377;22;20017;-84
2023/01/19 00:25:33;;;;;;;9.13;5.28;;;2.10;99.90;;;;;;6244164;22;20066;-84
2023/01/19 00:27:59;;;;;;;6.85;4.70;;;2.70;99.90;;;;;;6211439;23;20020;-84
2023/01/19 00:30:25;;;;;;;9.65;4.40;;;3.30;99.90;;;;;;6243427;22;20519;-83
2023/01/19 00:32:50;;;;;;;10.13;4.70;;;3.00;99.90;;;;;;6212099;23;20113;-84
2023/01/19 00:35:16;;;;;;;13.18;6.30;;;3.20;99.90;;;;;;6214066;22;20440;-84
2023/01/19 00:37:44;;;;;;;11.98;6.07;;;2.10;99.90;;;;;;6213294;23;20042;-84
2023/01/19 00:40:12;;;;;;;10.27;4.88;;;2.10;99.90;;;;;;6243861;22;20023;-83
2023/01/19 00:42:39;;;;;;;9.80;5.22;;;2.10;99.90;;;;;;6213481;23;20048;-84
2023/01/19 00:45:07;;;;;;;11.80;5.00;;;2.40;99.90;;;;;;6237394;23;20027;-84
2023/01/19 00:47:33;;;;;;;12.82;4.28;;;2.10;99.90;;;;;;6219014;22;20081;-84
2023/01/19 00:50:01;;;;;;;10.40;4.60;;;3.20;99.90;;;;;;6242266;22;20503;-83
2023/01/19 00:52:27;;;;;;;16.02;5.28;;;3.20;99.90;;;;;;6219038;22;20094;-84
2023/01/19 00:54:53;;;;;;;12.88;4.72;;;2.10;99.90;;;;;;6243381;22;20537;-84
2023/01/19 00:57:22;;;;;;;12.55;5.80;;;1.30;99.90;;;;;;6215732;22;20035;-83
2023/01/19 00:59:48;;;;;;;10.82;4.80;;;2.10;99.90;;;;;;6212934;23;20080;-84
2023/01/19 01:02:14;;;;;;;11.18;5.30;;;2.10;99.90;;;;;;6243542;22;20081;-84
2023/01/19 01:04:40;;;;;;;16.75;7.35;;;2.10;99.90;;;;;;6217950;22;20489;-84
2023/01/19 01:07:05;;;;;;;16.88;7.53;;;2.10;99.90;;;;;;6242894;22;20012;-84
2023/01/19 01:09:31;;;;;;;16.73;7.07;;;2.20;99.90;;;;;;6218585;22;20055;-84
2023/01/19 01:11:57;;;;;;;15.55;5.85;;;1.70;99.90;;;;;;6242672;22;20073;-84
2023/01/19 01:14:23;;;;;;;15.50;6.63;;;3.00;99.90;;;;;;6215255;22;20128;-84
2023/01/19 01:16:49;;;;;;;12.75;6.63;;;2.30;99.90;;;;;;6241841;22;20463;-83
2023/01/19 01:19:21;;;;;;;20.90;7.50;;;2.30;99.90;;;;;;6243839;22;20344;-84
2023/01/19 01:21:46;;;;;;;20.58;7.30;;;2.20;99.90;;;;;;6213273;23;20023;-84
2023/01/19 01:24:12;;;;;;;9.27;5.07;;;3.00;99.90;;;;;;6242622;22;20038;-84
2023/01/19 01:26:38;;;;;;;10.77;4.57;;;2.50;99.90;;;;;;6243905;22;20283;-84
2023/01/19 01:29:05;;;;;;;9.10;5.38;;;2.40;99.90;;;;;;6242846;22;20019;-84
2023/01/19 01:31:31;;;;;;;11.25;4.43;;;2.90;99.90;;;;;;6215992;22;20445;-84
2023/01/19 01:33:56;;;;;;;10.05;4.00;;;3.00;99.90;;;;;;6242825;22;20019;-84
2023/01/19 01:36:22;;;;;;;9.23;1.98;;;2.50;99.90;;;;;;6217414;22;20016;-84
2023/01/19 01:38:48;;;;;;;6.85;1.30;;;2.50;99.90;;;;;;6211819;23;20043;-84
2023/01/19 01:41:14;;;;;;;7.05;1.40;;;2.50;99.90;;;;;;6243701;22;20016;-84
2023/01/19 01:43:42;;;;;;;7.97;1.30;;;2.50;99.90;;;;;;6212549;23;20016;-84
2023/01/19 01:46:08;;;;;;;5.20;1.20;;;2.60;99.90;;;;;;6256015;22;20078;-83
2023/01/19 01:48:36;;;;;;;6.50;1.50;;;3.40;99.90;;;;;;6242911;22;20020;-84
2023/01/19 01:51:23;;;;;;;6.43;1.60;;;2.60;99.90;;;;;;6242800;22;20020;-83
2023/01/19 01:53:59;;;;;;;6.15;1.90;;;2.60;99.90;;;;;;6211988;23;20099;-84
2023/01/19 01:56:31;;;;;;;7.47;2.60;;;2.70;99.90;;;;;;6242961;22;20379;-85
2023/01/19 01:58:58;;;;;;;8.63;3.42;;;2.60;99.90;;;;;;6241652;22;20474;-85
2023/01/19 02:04:08;;;;;;;6.85;3.38;;;3.20;99.90;;;;;;6243196;22;20119;-85
2023/01/19 02:14:48;;;;;;;7.97;3.75;;;2.40;99.90;;;;;;6240935;22;20051;-84
2023/01/19 02:17:13;;;;;;;10.20;4.22;;;3.50;99.90;;;;;;6242772;22;20026;-84
2023/01/19 02:19:42;;;;;;;9.30;4.07;;;2.90;99.90;;;;;;6242476;22;20102;-84
2023/01/19 02:22:16;;;;;;;11.00;4.53;;;2.40;99.90;;;;;;6211751;23;20020;-85
2023/01/19 02:24:42;;;;;;;6.97;4.53;;;2.40;99.90;;;;;;6242837;22;20027;-84
2023/01/19 02:27:08;;;;;;;9.60;4.55;;;2.30;99.90;;;;;;6242234;22;20016;-86
2023/01/19 02:29:34;;;;;;;12.80;6.00;;;2.10;99.90;;;;;;6216320;22;20030;-85
2023/01/19 02:32:01;;;;;;;10.00;6.00;;;3.10;99.90;;;;;;6241580;22;20016;-85
2023/01/19 02:34:28;;;;;;;10.55;5.88;;;3.00;99.90;;;;;;6239666;22;20031;-84
2023/01/19 02:36:59;;;;;;;11.20;5.85;;;2.80;99.90;;;;;;6216684;22;20020;-84
2023/01/19 02:39:32;;;;;;;12.30;5.75;;;2.30;99.90;;;;;;6239863;22;20070;-84
2023/01/19 02:42:03;;;;;;;11.32;5.68;;;2.30;99.90;;;;;;6241115;22;20077;-84
2023/01/19 02:44:30;;;;;;;11.82;6.07;;;2.30;99.90;;;;;;6242171;22;20099;-84
2023/01/19 02:46:56;;;;;;;12.73;6.97;;;2.20;99.90;;;;;;6216359;22;20014;-84
2023/01/19 02:49:22;;;;;;;16.33;6.35;;;2.90;99.90;;;;;;6241070;22;20023;-83
2023/01/19 02:51:49;;;;;;;10.98;5.93;;;2.80;99.90;;;;;;6242018;22;20043;-83
2023/01/19 02:54:40;;;;;;;14.10;5.18;;;2.20;99.90;;;;;;6212289;22;20024;-82
2023/01/19 02:57:17;;;;;;;11.63;5.00;;;2.20;99.90;;;;;;6210285;23;20016;-83
2023/01/19 03:00:02;;;;;;;6.80;3.97;;;2.20;99.90;;;;;;6241505;22;20012;-83
2023/01/19 03:02:56;;;;;;;6.18;4.10;;;2.80;99.90;;;;;;6240936;22;20046;-84
2023/01/19 03:05:50;;;;;;;10.52;5.82;;;2.20;99.90;;;;;;6242470;22;20027;-83
2023/01/19 03:08:30;;;;;;;11.85;5.88;;;2.20;99.90;;;;;;6242229;22;20019;-84
2023/01/19 03:11:04;;;;;;;10.50;6.40;;;2.20;99.90;;;;;;6240484;22;20152;-83
2023/01/19 03:13:51;;;;;;;12.38;6.80;;;2.20;99.90;;;;;;6216328;22;20024;-84
2023/01/19 03:16:38;;;;;;;10.07;6.47;;;2.10;99.90;;;;;;6241292;22;20294;-84
2023/01/19 03:19:19;;;;;;;10.07;5.50;;;2.20;99.90;;;;;;6241443;22;20020;-84
2023/01/19 03:21:49;;;;;;;11.98;5.85;;;2.70;99.90;;;;;;6211345;23;20028;-83
2023/01/19 03:24:17;;;;;;;8.73;5.22;;;2.20;99.90;;;;;;6212194;22;20047;-83
2023/01/19 03:26:48;;;;;;;11.88;6.18;;;2.80;99.90;;;;;;6211311;23;20047;-84
2023/01/19 03:29:17;;;;;;;12.98;7.35;;;2.80;99.90;;;;;;6242013;22;20562;-83
2023/01/19 03:31:46;;;;;;;13.48;8.38;;;2.20;99.90;;;;;;6240219;22;20011;-83
2023/01/19 03:34:14;;;;;;;16.48;8.23;;;2.20;99.90;;;;;;6216988;22;20019;-83
2023/01/19 03:36:45;;;;;;;10.85;7.10;;;2.10;99.90;;;;;;6241869;22;20090;-84
2023/01/19 03:39:16;;;;;;;15.48;7.25;;;2.20;99.90;;;;;;6241838;22;20451;-83
2023/01/19 03:41:46;;;;;;;11.60;6.43;;;2.00;99.90;;;;;;6242203;22;20081;-83
2023/01/19 03:44:12;;;;;;;12.48;6.38;;;2.40;99.90;;;;;;6241583;22;20018;-83
2023/01/19 03:46:39;;;;;;;13.50;6.97;;;2.00;99.90;;;;;;6241654;22;20321;-83
2023/01/19 03:49:06;;;;;;;11.70;6.32;;;2.90;99.90;;;;;;6211702;23;20463;-84
2023/01/19 03:51:36;;;;;;;10.85;5.32;;;2.10;99.90;;;;;;6265280;22;20023;-85
2023/01/19 03:54:04;;;;;;;12.13;5.53;;;3.00;99.90;;;;;;6236647;23;20020;-83
2023/01/19 03:56:30;;;;;;;12.25;5.35;;;2.10;99.90;;;;;;6241913;22;20015;-84
2023/01/19 03:58:55;;;;;;;11.20;6.15;;;2.70;99.90;;;;;;6241003;22;20397;-84
2023/01/19 04:01:22;;;;;;;13.35;8.20;;;2.10;99.90;;;;;;6213098;22;20087;-84
2023/01/19 04:03:49;;;;;;;28.75;13.10;;;3.10;99.90;;;;;;6216823;22;20077;-84
2023/01/19 04:06:15;;;;;;;18.10;9.88;;;2.50;99.90;;;;;;6211466;22;20017;-84
2023/01/19 04:08:41;;;;;;;15.73;8.15;;;3.10;99.90;;;;;;6212938;23;20012;-84
2023/01/19 04:11:07;;;;;;;15.38;8.15;;;2.30;99.90;;;;;;6238859;23;20024;-84
2023/01/19 04:13:33;;;;;;;13.50;7.47;;;2.90;99.90;;;;;;6216955;22;20012;-83
2023/01/19 04:16:00;;;;;;;12.48;6.45;;;3.00;99.90;;;;;;6242479;22;20511;-84
2023/01/19 04:18:27;;;;;;;16.20;8.00;;;2.80;99.90;;;;;;6216190;22;20345;-84
2023/01/19 04:20:53;;;;;;;14.82;6.75;;;3.00;99.90;;;;;;6242196;22;20321;-84
2023/01/19 04:23:19;;;;;;;13.45;7.45;;;2.20;99.90;;;;;;6244163;22;20020;-84
2023/01/19 04:25:45;;;;;;;13.15;6.47;;;2.20;99.90;;;;;;6242948;22;20027;-83
2023/01/19 04:28:10;;;;;;;14.40;6.75;;;2.90;99.90;;;;;;6218062;22;20023;-84
2023/01/19 04:30:36;;;;;;;13.73;7.20;;;3.10;99.90;;;;;;6213715;23;20020;-83
2023/01/19 04:33:02;;;;;;;15.43;7.85;;;2.20;99.90;;;;;;6212375;23;20427;-83
2023/01/19 04:35:28;;;;;;;16.20;7.60;;;2.20;99.90;;;;;;6242864;22;20012;-83
2023/01/19 04:37:54;;;;;;;17.77;8.65;;;2.20;99.90;;;;;;6242716;22;20050;-83
2023/01/19 04:40:19;;;;;;;27.65;14.38;;;2.10;99.90;;;;;;6244133;22;20011;-83
2023/01/19 04:42:45;;;;;;;32.75;15.38;;;2.30;99.90;;;;;;6242048;22;20030;-83
2023/01/19 04:45:13;;;;;;;21.27;10.05;;;2.00;99.90;;;;;;6213064;23;20012;-83
2023/01/19 04:47:39;;;;;;;14.30;6.75;;;1.90;99.90;;;;;;6243608;22;20048;-83
2023/01/19 04:50:08;;;;;;;17.15;7.38;;;1.90;99.90;;;;;;6241733;22;20161;-83
2023/01/19 04:52:35;;;;;;;18.40;7.28;;;1.80;99.90;;;;;;6244206;22;20138;-83
2023/01/19 04:55:02;;;;;;;13.93;7.00;;;2.30;99.90;;;;;;6241320;22;20012;-83
2023/01/19 04:57:29;;;;;;;12.55;6.43;;;2.60;99.90;;;;;;6243667;22;20043;-83
2023/01/19 04:59:55;;;;;;;13.45;5.88;;;1.60;99.90;;;;;;6237211;23;20026;-83
2023/01/19 05:02:21;;;;;;;14.43;6.55;;;1.50;99.90;;;;;;6242370;22;20026;-83
2023/01/19 05:04:47;;;;;;;15.23;6.30;;;1.50;99.90;;;;;;6242663;22;20027;-83
2023/01/19 05:07:13;;;;;;;17.00;6.68;;;2.30;99.90;;;;;;6239155;22;20213;-83
2023/01/19 05:09:39;;;;;;;14.25;7.35;;;1.50;99.90;;;;;;6213153;23;20072;-84
2023/01/19 05:12:04;;;;;;;14.55;6.40;;;2.60;99.90;;;;;;6242187;22;20015;-83
2023/01/19 05:14:30;;;;;;;14.95;6.88;;;1.40;99.90;;;;;;6243379;22;20023;-84
2023/01/19 05:16:56;;;;;;;14.57;6.45;;;2.30;99.90;;;;;;6210799;23;20062;-83
2023/01/19 05:19:22;;;;;;;14.13;6.10;;;1.50;99.90;;;;;;6242769;22;20420;-84
2023/01/19 05:21:48;;;;;;;14.55;5.78;;;2.30;99.90;;;;;;6211762;23;20024;-83
2023/01/19 05:24:14;;;;;;;15.35;6.15;;;2.00;99.90;;;;;;6211965;22;20042;-84
2023/01/19 05:26:42;;;;;;;16.35;6.00;;;1.50;99.90;;;;;;6213352;23;20492;-84
2023/01/19 05:29:09;;;;;;;12.93;5.25;;;1.40;99.90;;;;;;6237430;23;20384;-83
2023/01/19 05:31:36;;;;;;;11.15;4.90;;;2.50;99.90;;;;;;6216190;22;20051;-83
2023/01/19 05:34:02;;;;;;;12.95;4.28;;;2.50;99.90;;;;;;6243059;22;20426;-83
2023/01/19 05:36:28;;;;;;;10.73;4.32;;;1.50;99.90;;;;;;6216547;22;20024;-84
2023/01/19 05:38:54;;;;;;;11.20;4.30;;;1.60;99.90;;;;;;6242259;22;20026;-84
2023/01/19 05:41:20;;;;;;;11.35;3.90;;;2.30;99.90;;;;;;6239748;22;20042;-83
2023/01/19 05:43:45;;;;;;;15.23;3.70;;;1.90;99.90;;;;;;6212701;23;20023;-84
2023/01/19 05:46:11;;;;;;;15.88;4.05;;;2.30;99.90;;;;;;6241429;22;20016;-84
2023/01/19 05:48:37;;;;;;;10.95;3.75;;;3.10;99.90;;;;;;6217630;22;20044;-84
2023/01/19 05:51:03;;;;;;;12.48;3.63;;;2.10;99.90;;;;;;6236900;23;20020;-84
2023/01/19 05:53:30;;;;;;;13.25;2.83;;;1.90;99.90;;;;;;6242724;22;20448;-84
2023/01/19 05:56:00;;;;;;;12.88;2.40;;;2.10;99.90;;;;;;6212692;23;20115;-84
2023/01/19 05:58:26;;;;;;;6.32;2.05;;;2.10;99.90;;;;;;6241847;22;20120;-84
2023/01/19 06:00:51;;;;;;;13.90;1.63;;;3.10;99.90;;;;;;6211088;23;20451;-84
2023/01/19 06:03:17;;;;;;;7.50;1.08;;;2.20;99.90;;;;;;6239313;22;20114;-84
2023/01/19 06:05:43;;;;;;;8.95;1.23;;;2.70;99.90;;;;;;6236082;23;20012;-84
2023/01/19 06:08:09;;;;;;;8.43;1.10;;;2.40;99.90;;;;;;6243121;22;20089;-84
2023/01/19 06:10:34;;;;;;;15.18;1.85;;;2.70;99.90;;;;;;6216932;22;20023;-84
2023/01/19 06:13:00;;;;;;;5.68;0.93;;;2.40;99.90;;;;;;6241323;22;20019;-84
2023/01/19 06:15:26;;;;;;;9.52;1.13;;;2.50;99.90;;;;;;6217320;22;20016;-84
2023/01/19 06:17:51;;;;;;;8.75;1.00;;;3.60;99.90;;;;;;6241078;22;20132;-84
2023/01/19 06:20:17;;;;;;;5.93;1.10;;;3.10;99.90;;;;;;6216756;22;20026;-84
2023/01/19 06:22:43;;;;;;;8.95;1.10;;;2.90;99.90;;;;;;6241985;22;20026;-85
2023/01/19 06:25:10;;;;;;;3.67;0.60;;;3.60;99.90;;;;;;6213344;23;20111;-85
2023/01/19 06:27:36;;;;;;;5.72;0.60;;;2.90;99.90;;;;;;6242185;22;20030;-85
2023/01/19 06:30:03;;;;;;;6.18;0.70;;;2.90;99.90;;;;;;6241699;22;20047;-85
2023/01/19 06:32:29;;;;;;;13.70;2.85;;;2.90;99.90;;;;;;6217617;22;20227;-85
2023/01/19 06:34:55;;;;;;;5.72;0.63;;;2.90;99.90;;;;;;6240564;22;20016;-85
2023/01/19 06:37:21;;;;;;;9.38;1.23;;;3.00;99.90;;;;;;6242630;22;20077;-84
2023/01/19 06:39:46;;;;;;;5.88;0.95;;;2.90;99.90;;;;;;6211986;23;20093;-84
2023/01/19 06:42:13;;;;;;;5.15;1.02;;;3.00;99.90;;;;;;6241725;22;20062;-85
2023/01/19 06:44:46;;;;;;;8.30;1.17;;;3.00;99.90;;;;;;6237317;23;20024;-85
2023/01/19 06:47:12;;;;;;;9.77;0.88;;;2.90;99.90;;;;;;6237737;23;20051;-85
2023/01/19 06:49:37;;;;;;;6.00;0.70;;;2.80;99.90;;;;;;6216639;22;20024;-84
2023/01/19 06:52:03;;;;;;;9.57;0.82;;;3.50;99.90;;;;;;6242295;22;20024;-84
2023/01/19 06:54:29;;;;;;;6.55;0.82;;;2.70;99.90;;;;;;6240249;22;20122;-84
2023/01/19 06:56:55;;;;;;;10.68;1.08;;;3.00;99.90;;;;;;6211335;23;20448;-84
2023/01/19 06:59:20;;;;;;;11.00;1.13;;;2.70;99.90;;;;;;6214378;22;20027;-84
2023/01/19 07:01:46;;;;;;;8.63;1.55;;;2.60;99.90;;;;;;6241475;22;20020;-84
2023/01/19 07:04:13;;;;;;;12.70;1.67;;;2.60;99.90;;;;;;6212302;22;20015;-84
2023/01/19 07:06:40;;;;;;;14.43;1.88;;;2.60;99.90;;;;;;6243296;22;20028;-84
2023/01/19 07:09:09;;;;;;;13.30;1.58;;;3.30;99.90;;;;;;6235849;23;20518;-84
2023/01/19 07:11:35;;;;;;;11.45;1.38;;;2.90;99.90;;;;;;6243289;22;20020;-84
2023/01/19 07:14:02;;;;;;;13.77;1.65;;;2.50;99.90;;;;;;6237401;23;20016;-84
2023/01/19 07:16:28;;;;;;;10.65;1.70;;;2.50;99.90;;;;;;6214255;22;20123;-84
2023/01/19 07:18:53;;;;;;;16.65;1.75;;;2.50;99.90;;;;;;6211848;23;20103;-85
2023/01/19 07:21:19;;;;;;;9.52;1.15;;;3.20;99.90;;;;;;6242235;22;20027;-84
2023/01/19 07:23:52;;;;;;;15.45;1.58;;;2.60;99.90;;;;;;6211125;23;20467;-84
2023/01/19 07:26:20;;;;;;;16.98;1.40;;;2.60;99.90;;;;;;6217808;22;20016;-84
2023/01/19 07:28:46;;;;;;;17.23;1.85;;;2.70;99.90;;;;;;6237277;23;20147;-84
2023/01/19 07:31:13;;;;;;;16.13;1.55;;;3.50;99.90;;;;;;6210085;22;20435;-84
2023/01/19 07:33:39;;;;;;;14.43;1.70;;;2.60;99.90;;;;;;6217498;22;20027;-84
2023/01/19 07:36:05;;;;;;;13.70;1.65;;;2.70;99.90;;;;;;6210884;23;20567;-85
2023/01/19 07:38:31;;;;;;;14.70;2.20;;;2.70;99.90;;;;;;6215213;22;20012;-85
2023/01/19 07:41:02;;;;;;;20.55;3.22;;;3.50;99.90;;;;;;6211098;23;20020;-84
2023/01/19 07:43:28;;;;;;;13.32;1.83;;;2.80;99.90;;;;;;6243856;22;20023;-85
2023/01/19 07:45:58;;;;;;;15.98;1.42;;;2.80;99.90;;;;;;6241323;22;20455;-84
2023/01/19 07:48:24;;;;;;;10.60;1.70;;;3.40;99.90;;;;;;6243992;22;20015;-84
2023/01/19 07:50:50;;;;;;;13.13;1.65;;;2.90;99.90;;;;;;6242662;22;20500;-85
2023/01/19 07:53:16;;;;;;;22.33;2.80;;;2.90;99.90;;;;;;6214128;22;20022;-84
2023/01/19 07:55:43;;;;;;;19.85;2.00;;;2.90;99.90;;;;;;6243280;22;20067;-84
2023/01/19 07:58:08;;;;;;;22.50;3.67;;;3.00;99.90;;;;;;6217852;22;20519;-85
2023/01/19 08:00:36;;;;;;;16.42;1.75;;;3.00;99.90;;;;;;6218409;22;20057;-85
2023/01/19 08:03:03;;;;;;;15.35;2.33;;;3.00;99.90;;;;;;6218717;22;20020;-84
2023/01/19 08:05:29;;;;;;;17.27;2.42;;;3.10;99.90;;;;;;6243643;22;20464;-85
2023/01/19 08:07:56;;;;;;;12.77;1.75;;;3.20;99.90;;;;;;6213384;23;20027;-85
2023/01/19 08:10:24;;;;;;;22.25;2.20;;;3.60;99.90;;;;;;6243930;22;20456;-85
2023/01/19 08:12:52;;;;;;;18.85;2.75;;;3.40;99.90;;;;;;6238340;23;20023;-85
2023/01/19 08:15:21;;;;;;;9.20;1.65;;;3.30;99.90;;;;;;6261541;22;20031;-85
2023/01/19 08:17:55;;;;;;;15.05;2.67;;;4.40;99.90;;;;;;6217909;22;20023;-85
2023/01/19 08:20:22;;;;;;;17.25;2.10;;;3.60;99.90;;;;;;6218068;22;20046;-86
2023/01/19 08:22:48;;;;;;;13.57;1.65;;;3.40;99.90;;;;;;6213558;23;20330;-86
2023/01/19 08:25:14;;;;;;;13.48;2.00;;;3.60;99.90;;;;;;6214178;22;20012;-85
2023/01/19 08:27:39;;;;;;;11.30;1.50;;;3.40;99.90;;;;;;6213701;23;20325;-85
2023/01/19 08:30:06;;;;;;;17.08;1.83;;;3.90;99.90;;;;;;6244070;22;20344;-86
2023/01/19 08:32:31;;;;;;;19.85;2.03;;;3.40;99.90;;;;;;6244027;22;20350;-86
2023/01/19 08:34:57;;;;;;;11.63;1.50;;;4.20;99.90;;;;;;6213000;23;20479;-86
2023/01/19 08:37:23;;;;;;;17.48;2.00;;;3.60;99.90;;;;;;6240955;22;20100;-85
2023/01/19 08:39:49;;;;;;;12.77;1.85;;;4.10;99.90;;;;;;6244200;22;20096;-85
2023/01/19 08:42:15;;;;;;;14.85;1.83;;;3.60;99.90;;;;;;6244685;22;20020;-87
2023/01/19 08:44:41;;;;;;;15.80;2.28;;;4.60;99.90;;;;;;6243386;22;20007;-84
2023/01/19 08:47:07;;;;;;;18.00;2.17;;;3.90;99.90;;;;;;6216558;22;20169;-85
2023/01/19 08:49:34;;;;;;;18.33;1.83;;;4.00;99.90;;;;;;6218810;22;20173;-85
2023/01/19 08:52:01;;;;;;;19.42;2.55;;;4.20;99.90;;;;;;6212753;23;20024;-87
2023/01/19 08:55:49;;;;;;;14.98;1.92;;;4.50;99.90;;;;;;6242765;22;20073;-87
2023/01/19 08:58:03;;;;;;;15.05;1.85;;;4.00;99.90;;;;;;6262592;22;20392;-86
2023/01/19 09:01:05;;;;;;;22.65;2.80;;;4.00;99.90;;;;;;6246264;22;20065;-85
2023/01/19 09:04:03;;;;;;;19.08;2.80;;;4.20;99.90;;;;;;6218464;22;20372;-86
2023/01/19 09:07:12;;;;;;;20.73;2.45;;;4.90;99.90;;;;;;6231228;22;20027;-86
2023/01/19 09:10:34;;;;;;;;;;;;;;;;;;;;;
2023/01/19 09:13:09;;;;;;;19.90;2.85;;;4.30;99.90;;;;;;6237740;22;20012;-86
2023/01/19 09:15:37;;;;;;;15.77;2.35;;;4.20;99.90;;;;;;6243070;22;20090;-85
2023/01/19 09:18:13;;;;;;;17.77;2.58;;;3.30;99.90;;;;;;6218517;22;20028;-85
2023/01/19 09:21:10;;;;;;;;;;;;;;;;;;;;;
2023/01/19 09:24:34;;;;;;;;;;;;;;;;;;;;;
2023/01/19 09:27:42;;;;;;;;;;;;;;;;;;;;;
2023/01/19 09:30:57;;;;;;;13.88;2.42;;;3.70;99.90;;;;;;6243052;22;20113;-85
2023/01/19 09:34:03;;;;;;;22.95;2.50;;;3.60;99.90;;;;;;6153795;23;20429;-85
2023/01/19 09:37:32;;;;;;;17.00;2.58;;;3.60;99.90;;;;;;6086767;23;20024;-85
2023/01/19 09:43:11;;;;;;;21.40;2.55;;;3.40;99.90;;;;;;6175866;23;20026;-85
2023/01/19 09:45:47;;;;;;;16.02;2.45;;;3.30;99.90;;;;;;6230367;22;20027;-85
2023/01/19 09:49:12;;;;;;;15.23;2.35;;;3.30;99.90;;;;;;6213789;23;20019;-85
2023/01/19 09:55:55;;;;;;;17.92;1.98;;;3.40;99.90;;;;;;6189225;22;20028;-86
2023/01/19 09:59:21;;;;;;;;;;;;;;;;;;;;;
2023/01/19 10:02:37;;;;;;;;;;;;;;;;;;;;;
2023/01/19 10:05:43;;;;;;;12.68;1.50;;;3.40;99.90;;;;;;6242019;22;20094;-85
2023/01/19 10:09:04;;;;;;;14.38;2.13;;;3.70;99.90;;;;;;6238678;22;20095;-85
2023/01/19 10:12:15;;;;;;;16.20;2.33;;;3.40;99.90;;;;;;6270366;22;20103;-85
2023/01/19 10:16:10;;;;;;;18.63;3.38;;;3.80;99.90;;;;;;6227671;23;20365;-85
2023/01/19 10:19:24;;;;;;;18.75;2.22;;;3.50;99.90;;;;;;6191955;22;20015;-84
2023/01/19 10:22:15;;;;;;;17.33;2.45;;;3.90;99.90;;;;;;6249114;22;20468;-84
2023/01/19 10:32:24;;;;;;;15.02;2.70;;;4.70;99.90;;;;;;6253159;22;20026;-85
2023/01/19 10:38:44;;;;;;;15.70;2.53;;;4.20;99.90;;;;;;6195431;22;20030;-85
2023/01/19 10:42:28;;;;;;;19.52;2.05;;;4.30;99.90;;;;;;6224978;22;20415;-86
2023/01/19 10:50:04;;;;;;;13.15;2.45;;;4.40;99.90;;;;;;6203439;22;20078;-85
2023/01/19 10:56:51;;;;;;;;;;;;;;;;;;;;;
2023/01/19 11:00:13;;;;;;;15.10;2.95;;;4.10;99.90;;;;;;6242232;22;20026;-84
2023/01/19 11:11:23;;;;;;;;;;;;;;;;;;;;;
2023/01/19 11:15:05;;;;;;;13.93;2.17;;;4.70;99.90;;;;;;6241713;22;20039;-84
2023/01/19 11:52:56;;;;;;;;;;;;;;;;;;;;;
2023/01/19 11:56:03;;;;;;;;;;;;;;;;;;;;;
2023/01/19 11:59:26;;;;;;;14.48;2.47;;;5.60;99.90;;;;;;5931143;23;20233;-84
2023/01/19 12:13:48;;;;;;;12.32;1.77;;;5.90;99.90;;;;;;6001701;23;20087;-84
2023/01/19 12:16:52;;;;;;;;;;;;;;;;;;;;;
2023/01/19 12:32:08;;;;;;;21.88;1.60;;;4.80;99.90;;;;;;6079552;23;20450;-84
2023/01/19 12:46:08;;;;;;;13.07;1.52;;;4.60;99.90;;;;;;6143640;23;20024;-83
2023/01/19 12:49:26;;;;;;;8.35;1.10;;;4.10;99.90;;;;;;6121201;23;20032;-84
2023/01/19 12:52:58;;;;;;;;;;;;;;;;;;;;;
2023/01/19 12:56:43;;;;;;;;;;;;;;;;;;;;;
2023/01/19 13:00:19;;;;;;;;;;;;;;;;;;;;;
2023/01/19 13:04:08;;;;;;;9.70;1.15;;;5.30;99.90;;;;;;6208975;23;20074;-85
2023/01/19 13:10:44;;;;;;;9.27;1.42;;;5.50;99.90;;;;;;6163681;23;20028;-83
2023/01/19 13:13:57;;;;;;;14.30;1.52;;;5.40;99.90;;;;;;6221916;22;20020;-83
2023/01/19 13:18:11;;;;;;;7.30;1.27;;;5.00;99.90;;;;;;6211371;23;20066;-83
2023/01/19 13:21:12;;;;;;;11.45;1.13;;;5.30;99.90;;;;;;6131328;23;20024;-84
2023/01/19 13:24:21;;;;;;;12.23;1.65;;;5.10;99.90;;;;;;6210535;23;20094;-83
2023/01/19 13:27:39;;;;;;;9.65;1.42;;;5.40;99.90;;;;;;6196932;23;20036;-83
2023/01/19 13:31:08;;;;;;;;;;;;;;;;;;;;;
2023/01/19 13:34:39;;;;;;;12.88;1.75;;;5.00;99.90;;;;;;6239874;23;20049;-83
2023/01/19 13:37:40;;;;;;;;;;;;;;;;;;;;;
2023/01/19 13:40:32;;;;;;;9.75;1.10;;;5.00;99.90;;;;;;6212809;23;20020;-83
2023/01/19 13:46:51;;;;;;;7.00;0.90;;;4.50;99.90;;;;;;6185570;23;20028;-82
2023/01/19 14:09:19;;;;;;;9.80;1.60;;;4.20;99.90;;;;;;6001760;23;20507;-84
2023/01/19 14:12:32;;;;;;;8.25;1.08;;;4.20;99.90;;;;;;5999011;23;20023;-83
2023/01/19 14:15:39;;;;;;;8.43;1.45;;;5.10;99.90;;;;;;6027681;23;20018;-84
2023/01/19 14:26:16;;;;;;;;;;;;;;;;;;;;;
2023/01/19 14:30:30;;;;;;;;;;;;;;;;;;;;;
2023/01/19 14:33:22;;;;;;;;;;;;;;;;;;;;;
2023/01/19 14:36:38;;;;;;;;;;;;;;;;;;;;;
2023/01/19 14:40:06;;;;;;;;;;;;;;;;;;;;;
2023/01/19 14:51:35;;;;;;;9.20;1.05;;;3.50;99.90;;;;;;6132409;23;20463;-85
2023/01/19 14:55:11;;;;;;;;;;;;;;;;;;;;;
2023/01/19 14:58:12;;;;;;;;;;;;;;;;;;;;;
2023/01/19 15:01:37;;;;;;;;;;;;;;;;;;;;;
2023/01/19 15:04:03;;;;;;;8.98;1.15;;;3.40;99.90;;;;;;6211718;23;20391;-82
2023/01/19 15:13:33;;;;;;;5.45;1.08;;;2.80;99.90;;;;;;6211157;23;20528;-85
2023/01/19 15:16:11;;;;;;;7.03;0.98;;;2.90;99.90;;;;;;6204946;23;20016;-85
2023/01/19 15:20:09;;;;;;;7.10;1.08;;;2.60;99.90;;;;;;6229101;23;20024;-86
2023/01/19 15:32:52;;;;;;;;;;;;;;;;;;;;;
2023/01/19 15:38:37;;;;;;;5.93;0.98;;;2.20;99.90;;;;;;6160310;23;20419;-84
2023/01/19 15:45:53;;;;;;;4.65;0.93;;;1.80;99.90;;;;;;6166653;23;20035;-84
2023/01/19 15:49:30;;;;;;;7.78;1.40;;;2.00;99.90;;;;;;6190712;23;20074;-84
2023/01/19 15:51:43;;;;;;;11.05;1.08;;;1.80;99.90;;;;;;6232871;23;20469;-82
2023/01/19 15:54:13;;;;;;;5.53;1.55;;;2.30;99.90;;;;;;6186539;23;20062;-83
2023/01/19 15:56:40;;;;;;;9.60;1.58;;;3.20;99.90;;;;;;6211488;23;20020;-84
2023/01/19 15:59:06;;;;;;;8.80;1.13;;;2.30;99.90;;;;;;6210297;23;20013;-82
2023/01/19 16:01:33;;;;;;;7.20;1.30;;;2.10;99.90;;;;;;6211461;23;20034;-84
2023/01/19 16:04:12;;;;;;;7.72;1.35;;;2.10;99.90;;;;;;6181556;23;20031;-86
2023/01/19 16:06:38;;;;;;;10.43;1.60;;;2.00;99.90;;;;;;6212478;23;20144;-84
2023/01/19 16:09:04;;;;;;;9.13;1.33;;;2.00;99.90;;;;;;6210565;23;20367;-84
2023/01/19 16:11:32;;;;;;;7.70;1.52;;;2.00;99.90;;;;;;6237521;23;20028;-84
2023/01/19 16:13:58;;;;;;;8.57;2.08;;;1.90;99.90;;;;;;6211799;23;20047;-84
2023/01/19 16:16:24;;;;;;;10.05;1.42;;;1.90;99.90;;;;;;6212205;23;20074;-84
2023/01/19 16:18:51;;;;;;;5.80;1.27;;;2.30;99.90;;;;;;6211913;23;20115;-84
2023/01/19 16:21:16;;;;;;;10.88;1.98;;;2.40;99.90;;;;;;6213643;23;20016;-84
2023/01/19 16:23:42;;;;;;;6.53;1.20;;;1.60;99.90;;;;;;6187838;23;20020;-84
2023/01/19 16:26:24;;;;;;;7.68;1.35;;;1.50;99.90;;;;;;6211668;23;20012;-84
2023/01/19 16:28:50;;;;;;;8.40;1.65;;;1.80;99.90;;;;;;6237280;23;20020;-84
2023/01/19 16:31:16;;;;;;;10.32;1.63;;;2.30;99.90;;;;;;6186747;23;20024;-85
2023/01/19 16:33:43;;;;;;;10.35;1.75;;;1.20;99.90;;;;;;6212788;23;20016;-84
2023/01/19 16:36:22;;;;;;;11.32;2.03;;;2.20;99.90;;;;;;6187865;23;20058;-84
2023/01/19 16:38:48;;;;;;;9.77;1.73;;;1.00;99.90;;;;;;6211325;23;20436;-84
2023/01/19 16:41:14;;;;;;;15.45;2.10;;;1.00;99.90;;;;;;6190059;23;20039;-84
2023/01/19 16:43:43;;;;;;;7.20;1.60;;;0.90;99.90;;;;;;6215602;23;20024;-84
2023/01/19 16:46:18;;;;;;;12.00;1.80;;;0.90;99.90;;;;;;6241449;23;20019;-83
2023/01/19 16:48:44;;;;;;;8.15;2.55;;;0.90;99.90;;;;;;6213481;23;20020;-84
2023/01/19 16:51:10;;;;;;;14.40;2.20;;;1.70;99.90;;;;;;6185673;23;20031;-83
2023/01/19 16:53:35;;;;;;;6.78;1.80;;;0.80;99.90;;;;;;6185057;23;20047;-84
2023/01/19 16:56:06;;;;;;;7.28;1.63;;;0.80;99.90;;;;;;6187066;23;20106;-84
2023/01/19 16:58:32;;;;;;;12.43;2.20;;;0.80;99.90;;;;;;6187985;23;20057;-83
2023/01/19 17:01:21;;;;;;;;;;;;;;;;;;;;;
2023/01/19 17:04:11;;;;;;;;;;;;;;;;;;;;;
2023/01/19 17:06:45;;;;;;;10.73;1.85;;;0.50;99.90;;;;;;6212387;23;20202;-84
2023/01/19 17:09:14;;;;;;;10.95;2.08;;;1.10;99.90;;;;;;6213395;23;20020;-84
2023/01/19 17:11:47;;;;;;;9.90;1.70;;;2.10;99.90;;;;;;6213124;23;20099;-84
2023/01/19 17:14:22;;;;;;;8.23;2.08;;;0.60;99.90;;;;;;6211731;23;20378;-84
2023/01/19 17:16:57;;;;;;;8.38;2.00;;;1.30;99.90;;;;;;6187431;23;20099;-84
2023/01/19 17:19:31;;;;;;;11.52;2.30;;;0.70;99.90;;;;;;6213723;23;20023;-83